sensor_id;sensor_type;location;lat;lon;timestamp;pressure;altitude;pressure_sealevel;temperature;humidity
13553;BME280;6847;48.830;9.116;2023-02-16T00:01:15;98870.31;;;4.09;51.29
13553;BME280;6847;48.830;9.116;2023-02-16T00:03:53;98751.44;;;3.40;51.53
13553;BME280;6847;48.830;9.116;2023-02-16T00:06:21;98730.47;;;3.23;51.88
13553;BME280;6847;48.830;9.116;2023-02-16T00:09:01;98882.22;;;4.14;51.41
13553;BME280;6847;48.830;9.116;2023-02-16T00:11:37;98813.97;;;3.71;51.83
13553;BME280;6847;48.830;9.116;2023-02-16T00:14:25;98831.22;;;3.89;51.43
13553;BME280;6847;48.830;9.116;2023-02-16T00:16:58;98915.16;;;4.34;51.45
13553;BME280;6847;48.830;9.116;2023-02-16T00:19:30;98626.53;;;2.49;51.06
13553;BME280;6847;48.830;9.116;2023-02-16T00:22:02;98912.69;;;4.32;51.54
13553;BME280;6847;48.830;9.116;2023-02-16T00:24:36;98702.56;;;2.93;51.59
13553;BME280;6847;48.830;9.116;2023-02-16T00:27:12;98644.59;;;2.60;51.69
13553;BME280;6847;48.830;9.116;2023-02-16T00:29:57;98792.59;;;3.52;51.89
13553;BME280;6847;48.830;9.116;2023-02-16T00:32:35;98655.91;;;2.63;51.77
13553;BME280;6847;48.830;9.116;2023-02-16T00:35:15;98812.97;;;3.53;51.48
13553;BME280;6847;48.830;9.116;2023-02-16T00:37:47;98913.16;;;4.16;51.76
13553;BME280;6847;48.830;9.116;2023-02-16T00:40:17;98915.00;;;4.16;51.42
13553;BME280;6847;48.830;9.116;2023-02-16T00:42:46;98706.06;;;2.80;52.04
13553;BME280;6847;48.830;9.116;2023-02-16T00:45:15;98773.09;;;3.18;51.79
13553;BME280;6847;48.830;9.116;2023-02-16T00:47:47;98705.25;;;2.80;52.08
13553;BME280;6847;48.830;9.116;2023-02-16T00:50:22;98654.88;;;2.37;52.02
13553;BME280;6847;48.830;9.116;2023-02-16T00:53:02;98916.09;;;4.01;51.96
13553;BME280;6847;48.830;9.116;2023-02-16T00:55:33;98914.88;;;3.97;51.71
13553;BME280;6847;48.830;9.116;2023-02-16T00:58:04;98640.53;;;2.32;52.02
13553;BME280;6847;48.830;9.116;2023-02-16T01:00:39;98848.00;;;3.51;52.23
13553;BME280;6847;48.830;9.116;2023-02-16T01:03:25;98784.03;;;3.10;51.91
13553;BME280;6847;48.830;9.116;2023-02-16T01:05:52;98763.88;;;2.88;51.93
13553;BME280;6847;48.830;9.116;2023-02-16T01:08:54;98827.25;;;3.20;52.30
13553;BME280;6847;48.830;9.116;2023-02-16T01:11:46;98866.94;;;3.50;52.30
13553;BME280;6847;48.830;9.116;2023-02-16T01:14:15;98766.34;;;2.83;51.96
13553;BME280;6847;48.830;9.116;2023-02-16T01:16:50;98873.13;;;3.50;52.10
13553;BME280;6847;48.830;9.116;2023-02-16T01:19:17;98920.22;;;3.84;52.46
13553;BME280;6847;48.830;9.116;2023-02-16T01:21:51;98848.84;;;3.39;52.28
13553;BME280;6847;48.830;9.116;2023-02-16T01:24:19;98911.16;;;3.85;52.44
13553;BME280;6847;48.830;9.116;2023-02-16T01:26:49;98912.19;;;3.84;52.21
13553;BME280;6847;48.830;9.116;2023-02-16T01:29:19;98773.31;;;2.97;52.55
13553;BME280;6847;48.830;9.116;2023-02-16T01:31:48;98600.22;;;1.87;52.40
13553;BME280;6847;48.830;9.116;2023-02-16T01:34:22;98782.38;;;3.09;52.51
13553;BME280;6847;48.830;9.116;2023-02-16T01:36:52;98846.56;;;3.42;52.39
13553;BME280;6847;48.830;9.116;2023-02-16T01:39:21;98849.03;;;3.44;52.21
13553;BME280;6847;48.830;9.116;2023-02-16T01:41:58;98651.19;;;2.38;52.54
13553;BME280;6847;48.830;9.116;2023-02-16T01:44:32;98868.38;;;3.72;52.57
13553;BME280;6847;48.830;9.116;2023-02-16T01:47:04;98683.25;;;2.58;52.87
13553;BME280;6847;48.830;9.116;2023-02-16T01:49:36;98898.41;;;3.87;52.74
13553;BME280;6847;48.830;9.116;2023-02-16T01:52:09;98695.81;;;2.71;51.96
13553;BME280;6847;48.830;9.116;2023-02-16T01:54:42;98884.38;;;3.85;52.57
13553;BME280;6847;48.830;9.116;2023-02-16T01:57:19;98674.84;;;2.48;52.50
13553;BME280;6847;48.830;9.116;2023-02-16T02:00:08;98884.00;;;3.75;52.51
13553;BME280;6847;48.830;9.116;2023-02-16T02:02:39;98883.19;;;3.68;52.77
13553;BME280;6847;48.830;9.116;2023-02-16T02:05:21;98888.34;;;3.63;52.36
13553;BME280;6847;48.830;9.116;2023-02-16T02:08:10;98743.94;;;2.71;52.64
13553;BME280;6847;48.830;9.116;2023-02-16T02:10:46;98640.13;;;2.15;52.80
13553;BME280;6847;48.830;9.116;2023-02-16T02:13:23;98842.47;;;3.26;52.55
13553;BME280;6847;48.830;9.116;2023-02-16T02:15:57;98561.19;;;1.53;52.55
13553;BME280;6847;48.830;9.116;2023-02-16T02:18:28;98833.63;;;3.19;53.14
13553;BME280;6847;48.830;9.116;2023-02-16T02:21:14;98885.69;;;3.50;53.08
13553;BME280;6847;48.830;9.116;2023-02-16T02:24:13;98716.97;;;2.39;52.66
13553;BME280;6847;48.830;9.116;2023-02-16T02:27:01;98655.28;;;2.01;52.66
13553;BME280;6847;48.830;9.116;2023-02-16T02:29:54;98877.03;;;3.34;52.87
13553;BME280;6847;48.830;9.116;2023-02-16T02:32:36;98663.09;;;2.03;53.31
13553;BME280;6847;48.830;9.116;2023-02-16T02:35:24;98866.31;;;3.34;52.96
13553;BME280;6847;48.830;9.116;2023-02-16T02:38:05;98866.31;;;3.34;53.26
13553;BME280;6847;48.830;9.116;2023-02-16T02:40:47;98761.00;;;2.70;53.42
13553;BME280;6847;48.830;9.116;2023-02-16T02:43:24;98833.63;;;3.13;52.81
13553;BME280;6847;48.830;9.116;2023-02-16T02:45:56;98860.59;;;3.31;53.34
13553;BME280;6847;48.830;9.116;2023-02-16T02:48:29;98853.59;;;3.30;53.35
13553;BME280;6847;48.830;9.116;2023-02-16T02:50:57;98585.41;;;1.52;52.91
13553;BME280;6847;48.830;9.116;2023-02-16T02:53:46;98855.66;;;3.21;53.61
13553;BME280;6847;48.830;9.116;2023-02-16T02:56:38;98797.19;;;2.79;53.09
13553;BME280;6847;48.830;9.116;2023-02-16T02:59:29;98833.00;;;3.04;53.35
13553;BME280;6847;48.830;9.116;2023-02-16T03:02:16;98716.56;;;2.29;53.67
13553;BME280;6847;48.830;9.116;2023-02-16T03:04:46;98582.72;;;1.45;52.93
13553;BME280;6847;48.830;9.116;2023-02-16T03:07:18;98675.84;;;2.01;53.37
13553;BME280;6847;48.830;9.116;2023-02-16T03:10:11;98807.50;;;2.82;53.01
13553;BME280;6847;48.830;9.116;2023-02-16T03:13:01;98833.19;;;2.96;53.18
13553;BME280;6847;48.830;9.116;2023-02-16T03:15:45;98852.56;;;3.11;52.92
13553;BME280;6847;48.830;9.116;2023-02-16T03:18:15;98829.72;;;3.02;53.12
13553;BME280;6847;48.830;9.116;2023-02-16T03:21:02;98647.06;;;1.90;53.06
13553;BME280;6847;48.830;9.116;2023-02-16T03:23:51;98812.41;;;2.98;53.04
13553;BME280;6847;48.830;9.116;2023-02-16T03:26:38;98511.00;;;1.09;53.69
13553;BME280;6847;48.830;9.116;2023-02-16T03:29:25;98835.69;;;3.11;53.40
13553;BME280;6847;48.830;9.116;2023-02-16T03:31:56;98735.47;;;2.41;53.29
13553;BME280;6847;48.830;9.116;2023-02-16T03:34:24;98647.28;;;1.95;53.34
13553;BME280;6847;48.830;9.116;2023-02-16T03:36:56;98764.28;;;2.72;53.17
13553;BME280;6847;48.830;9.116;2023-02-16T03:39:30;98865.94;;;3.31;53.12
13553;BME280;6847;48.830;9.116;2023-02-16T03:42:20;98523.38;;;1.23;53.52
13553;BME280;6847;48.830;9.116;2023-02-16T03:44:53;98833.22;;;3.09;53.17
13553;BME280;6847;48.830;9.116;2023-02-16T03:47:24;98784.44;;;2.94;53.23
13553;BME280;6847;48.830;9.116;2023-02-16T03:49:56;98663.53;;;2.13;53.03
13553;BME280;6847;48.830;9.116;2023-02-16T03:52:23;98526.66;;;1.32;53.57
13553;BME280;6847;48.830;9.116;2023-02-16T03:55:00;98643.38;;;1.97;53.03
13553;BME280;6847;48.830;9.116;2023-02-16T03:57:27;98634.34;;;1.98;53.14
13553;BME280;6847;48.830;9.116;2023-02-16T04:00:00;98865.91;;;3.44;52.91
13553;BME280;6847;48.830;9.116;2023-02-16T04:02:28;98871.25;;;3.44;53.21
13553;BME280;6847;48.830;9.116;2023-02-16T04:04:55;98866.31;;;3.34;53.24
13553;BME280;6847;48.830;9.116;2023-02-16T04:07:23;98869.84;;;3.42;53.85
13553;BME280;6847;48.830;9.116;2023-02-16T04:09:49;98873.53;;;3.41;53.25
13553;BME280;6847;48.830;9.116;2023-02-16T04:12:17;98816.94;;;3.04;53.70
13553;BME280;6847;48.830;9.116;2023-02-16T04:15:01;98877.66;;;3.37;54.06
13553;BME280;6847;48.830;9.116;2023-02-16T04:17:29;98878.69;;;3.35;53.96
13553;BME280;6847;48.830;9.116;2023-02-16T04:19:57;98882.59;;;3.33;53.47
13553;BME280;6847;48.830;9.116;2023-02-16T04:22:26;98881.16;;;3.30;53.91
13553;BME280;6847;48.830;9.116;2023-02-16T04:24:54;98883.22;;;3.28;53.95
13553;BME280;6847;48.830;9.116;2023-02-16T04:27:21;98873.53;;;3.27;53.84
13553;BME280;6847;48.830;9.116;2023-02-16T04:29:48;98877.06;;;3.21;53.88
13553;BME280;6847;48.830;9.116;2023-02-16T04:32:14;98872.09;;;3.18;54.16
13553;BME280;6847;48.830;9.116;2023-02-16T04:34:43;98879.94;;;3.13;54.11
13553;BME280;6847;48.830;9.116;2023-02-16T04:37:10;98879.53;;;3.10;53.59
13553;BME280;6847;48.830;9.116;2023-02-16T04:39:37;98878.25;;;3.06;53.88
13553;BME280;6847;48.830;9.116;2023-02-16T04:42:05;98841.63;;;2.80;54.19
13553;BME280;6847;48.830;9.116;2023-02-16T04:44:36;98869.22;;;3.00;53.89
13553;BME280;6847;48.830;9.116;2023-02-16T04:47:04;98875.59;;;2.99;53.65
13553;BME280;6847;48.830;9.116;2023-02-16T04:49:33;98773.50;;;2.36;53.66
13553;BME280;6847;48.830;9.116;2023-02-16T04:52:03;98867.97;;;2.96;54.12
13553;BME280;6847;48.830;9.116;2023-02-16T04:54:32;98837.69;;;2.76;53.96
13553;BME280;6847;48.830;9.116;2023-02-16T04:56:59;98871.06;;;2.93;53.87
13553;BME280;6847;48.830;9.116;2023-02-16T04:59:27;98876.81;;;2.90;53.85
13553;BME280;6847;48.830;9.116;2023-02-16T05:01:54;98865.50;;;2.88;54.21
13553;BME280;6847;48.830;9.116;2023-02-16T05:04:21;98871.25;;;2.85;54.01
13553;BME280;6847;48.830;9.116;2023-02-16T05:06:48;98830.06;;;2.53;54.38
13553;BME280;6847;48.830;9.116;2023-02-16T05:09:17;98872.06;;;2.79;54.42
13553;BME280;6847;48.830;9.116;2023-02-16T05:11:44;98875.78;;;2.78;54.33
13553;BME280;6847;48.830;9.116;2023-02-16T05:14:30;98876.78;;;2.77;54.03
13553;BME280;6847;48.830;9.116;2023-02-16T05:17:12;98879.91;;;2.74;54.66
13553;BME280;6847;48.830;9.116;2023-02-16T05:19:39;98854.53;;;2.56;54.43
13553;BME280;6847;48.830;9.116;2023-02-16T05:22:07;98855.56;;;2.55;54.45
13553;BME280;6847;48.830;9.116;2023-02-16T05:24:38;98874.13;;;2.64;54.86
13553;BME280;6847;48.830;9.116;2023-02-16T05:27:07;98864.19;;;2.51;54.59
13553;BME280;6847;48.830;9.116;2023-02-16T05:29:35;98844.84;;;2.42;54.87
13553;BME280;6847;48.830;9.116;2023-02-16T05:32:02;98881.91;;;2.65;54.88
13553;BME280;6847;48.830;9.116;2023-02-16T05:34:29;98893.41;;;2.66;54.47
13553;BME280;6847;48.830;9.116;2023-02-16T05:36:56;98889.34;;;2.70;54.92
13553;BME280;6847;48.830;9.116;2023-02-16T05:39:23;98890.97;;;2.71;55.01
13553;BME280;6847;48.830;9.116;2023-02-16T05:41:54;98885.63;;;2.71;54.71
13553;BME280;6847;48.830;9.116;2023-02-16T05:44:21;98890.78;;;2.79;54.78
13553;BME280;6847;48.830;9.116;2023-02-16T05:46:50;98892.63;;;2.85;54.81
13553;BME280;6847;48.830;9.116;2023-02-16T05:49:17;98899.63;;;2.86;54.45
13553;BME280;6847;48.830;9.116;2023-02-16T05:51:44;98897.81;;;2.93;54.71
13553;BME280;6847;48.830;9.116;2023-02-16T05:54:11;98893.50;;;2.92;54.84
13553;BME280;6847;48.830;9.116;2023-02-16T05:56:42;98872.91;;;2.73;55.08
13553;BME280;6847;48.830;9.116;2023-02-16T05:59:14;98906.25;;;2.90;54.81
13553;BME280;6847;48.830;9.116;2023-02-16T06:01:42;98908.28;;;2.88;54.51
13553;BME280;6847;48.830;9.116;2023-02-16T06:04:12;98903.75;;;2.82;54.63
13553;BME280;6847;48.830;9.116;2023-02-16T06:06:39;98904.16;;;2.79;54.49
13553;BME280;6847;48.830;9.116;2023-02-16T06:09:07;98916.28;;;2.75;54.66
13553;BME280;6847;48.830;9.116;2023-02-16T06:11:35;98915.69;;;2.73;54.50
13553;BME280;6847;48.830;9.116;2023-02-16T06:14:03;98844.38;;;2.26;54.50
13553;BME280;6847;48.830;9.116;2023-02-16T06:16:35;98924.09;;;2.70;54.69
13553;BME280;6847;48.830;9.116;2023-02-16T06:19:03;98923.84;;;2.65;54.46
13553;BME280;6847;48.830;9.116;2023-02-16T06:21:31;98932.50;;;2.60;55.20
13553;BME280;6847;48.830;9.116;2023-02-16T06:23:58;98919.31;;;2.58;54.50
13553;BME280;6847;48.830;9.116;2023-02-16T06:26:25;98922.19;;;2.57;54.61
13553;BME280;6847;48.830;9.116;2023-02-16T06:28:52;98928.38;;;2.57;54.69
13553;BME280;6847;48.830;9.116;2023-02-16T06:31:19;98864.09;;;2.18;55.12
13553;BME280;6847;48.830;9.116;2023-02-16T06:33:46;98933.72;;;2.57;54.62
13553;BME280;6847;48.830;9.116;2023-02-16T06:36:13;98932.06;;;2.56;55.07
13553;BME280;6847;48.830;9.116;2023-02-16T06:38:41;98914.97;;;2.44;54.69
13553;BME280;6847;48.830;9.116;2023-02-16T06:41:11;98899.53;;;2.40;54.87
13553;BME280;6847;48.830;9.116;2023-02-16T06:43:37;98884.72;;;2.37;54.42
13553;BME280;6847;48.830;9.116;2023-02-16T06:46:04;98914.81;;;2.59;54.75
13553;BME280;6847;48.830;9.116;2023-02-16T06:48:32;98887.00;;;2.40;54.80
13553;BME280;6847;48.830;9.116;2023-02-16T06:51:01;98875.66;;;2.38;54.33
13553;BME280;6847;48.830;9.116;2023-02-16T06:53:28;98921.22;;;2.71;55.05
13553;BME280;6847;48.830;9.116;2023-02-16T06:55:55;98879.41;;;2.44;54.82
13553;BME280;6847;48.830;9.116;2023-02-16T06:58:22;98923.91;;;2.71;55.04
13553;BME280;6847;48.830;9.116;2023-02-16T07:00:49;98926.78;;;2.76;54.83
13553;BME280;6847;48.830;9.116;2023-02-16T07:03:16;98934.22;;;2.81;54.84
13553;BME280;6847;48.830;9.116;2023-02-16T07:05:42;98930.09;;;2.85;54.54
13553;BME280;6847;48.830;9.116;2023-02-16T07:08:10;98934.63;;;2.91;54.79
13553;BME280;6847;48.830;9.116;2023-02-16T07:10:41;98937.53;;;2.96;54.82
13553;BME280;6847;48.830;9.116;2023-02-16T07:13:08;98926.84;;;3.03;54.59
13553;BME280;6847;48.830;9.116;2023-02-16T07:15:35;98935.69;;;3.10;54.97
13553;BME280;6847;48.830;9.116;2023-02-16T07:18:02;98925.44;;;3.20;55.19
13553;BME280;6847;48.830;9.116;2023-02-16T07:20:30;98924.00;;;3.30;54.89
13553;BME280;6847;48.830;9.116;2023-02-16T07:22:56;98927.72;;;3.43;55.06
13553;BME280;6847;48.830;9.116;2023-02-16T07:25:24;98937.78;;;3.54;54.54
13553;BME280;6847;48.830;9.116;2023-02-16T07:27:51;98929.75;;;3.67;54.42
13553;BME280;6847;48.830;9.116;2023-02-16T07:30:19;98937.97;;;3.79;54.58
13553;BME280;6847;48.830;9.116;2023-02-16T07:32:46;98907.06;;;3.63;54.40
13553;BME280;6847;48.830;9.116;2023-02-16T07:35:13;98919.81;;;3.87;54.55
13553;BME280;6847;48.830;9.116;2023-02-16T07:37:39;98942.03;;;4.21;54.38
13553;BME280;6847;48.830;9.116;2023-02-16T07:40:06;98942.75;;;4.41;54.16
13553;BME280;6847;48.830;9.116;2023-02-16T07:42:35;98940.19;;;5.35;53.25
13553;BME280;6847;48.830;9.116;2023-02-16T07:45:03;98945.91;;;6.68;51.92
13553;BME280;6847;48.830;9.116;2023-02-16T07:47:31;98926.06;;;7.75;50.39
13553;BME280;6847;48.830;9.116;2023-02-16T07:49:58;98922.03;;;9.00;49.00
13553;BME280;6847;48.830;9.116;2023-02-16T07:52:25;98955.59;;;10.32;47.75
13553;BME280;6847;48.830;9.116;2023-02-16T07:54:55;98957.06;;;11.32;47.47
13553;BME280;6847;48.830;9.116;2023-02-16T07:57:24;98964.38;;;12.28;47.40
13553;BME280;6847;48.830;9.116;2023-02-16T07:59:54;98947.34;;;13.05;46.18
13553;BME280;6847;48.830;9.116;2023-02-16T08:02:22;98964.38;;;14.03;45.38
13553;BME280;6847;48.830;9.116;2023-02-16T08:04:48;98970.25;;;14.76;45.36
13553;BME280;6847;48.830;9.116;2023-02-16T08:07:17;98974.78;;;15.50;44.62
13553;BME280;6847;48.830;9.116;2023-02-16T08:09:44;98970.56;;;16.07;44.26
13553;BME280;6847;48.830;9.116;2023-02-16T08:12:12;98976.06;;;16.64;44.16
13553;BME280;6847;48.830;9.116;2023-02-16T08:14:39;98980.34;;;17.18;43.67
13553;BME280;6847;48.830;9.116;2023-02-16T08:17:07;98980.09;;;17.76;43.25
13553;BME280;6847;48.830;9.116;2023-02-16T08:19:34;98981.47;;;18.25;43.16
13553;BME280;6847;48.830;9.116;2023-02-16T08:22:05;98894.56;;;18.11;42.67
13553;BME280;6847;48.830;9.116;2023-02-16T08:24:33;98975.69;;;19.13;42.48
13553;BME280;6847;48.830;9.116;2023-02-16T08:27:01;98982.16;;;19.58;42.16
13553;BME280;6847;48.830;9.116;2023-02-16T08:29:32;98985.53;;;20.00;42.00
13553;BME280;6847;48.830;9.116;2023-02-16T08:31:59;98987.44;;;20.36;41.80
13553;BME280;6847;48.830;9.116;2023-02-16T08:34:29;98986.84;;;20.78;41.26
13553;BME280;6847;48.830;9.116;2023-02-16T08:36:57;98956.81;;;21.08;41.02
13553;BME280;6847;48.830;9.116;2023-02-16T08:39:25;98978.34;;;21.62;40.66
13553;BME280;6847;48.830;9.116;2023-02-16T08:41:52;98979.16;;;21.97;40.24
13553;BME280;6847;48.830;9.116;2023-02-16T08:44:21;98970.22;;;22.26;39.93
13553;BME280;6847;48.830;9.116;2023-02-16T08:46:50;98968.66;;;22.55;39.73
13553;BME280;6847;48.830;9.116;2023-02-16T08:49:18;98969.72;;;22.88;39.83
13553;BME280;6847;48.830;9.116;2023-02-16T08:51:49;98984.47;;;23.21;39.66
13553;BME280;6847;48.830;9.116;2023-02-16T08:54:18;98984.31;;;23.56;39.49
13553;BME280;6847;48.830;9.116;2023-02-16T08:56:46;98987.28;;;23.92;39.32
13553;BME280;6847;48.830;9.116;2023-02-16T08:59:14;98986.03;;;24.23;39.05
13553;BME280;6847;48.830;9.116;2023-02-16T09:01:44;98983.84;;;24.61;38.67
13553;BME280;6847;48.830;9.116;2023-02-16T09:04:11;98942.78;;;24.63;38.61
13553;BME280;6847;48.830;9.116;2023-02-16T09:06:40;98980.69;;;25.20;38.28
13553;BME280;6847;48.830;9.116;2023-02-16T09:09:09;98973.25;;;25.49;38.20
13553;BME280;6847;48.830;9.116;2023-02-16T09:11:36;98982.69;;;25.84;37.93
13553;BME280;6847;48.830;9.116;2023-02-16T09:14:05;98975.66;;;26.14;37.39
13553;BME280;6847;48.830;9.116;2023-02-16T09:16:33;98974.31;;;26.52;37.52
13553;BME280;6847;48.830;9.116;2023-02-16T09:19:03;98952.19;;;26.56;36.85
13553;BME280;6847;48.830;9.116;2023-02-16T09:21:31;98981.72;;;26.92;36.84
13553;BME280;6847;48.830;9.116;2023-02-16T09:23:59;98981.91;;;26.99;36.67
13553;BME280;6847;48.830;9.116;2023-02-16T09:26:30;98988.84;;;27.24;36.33
13553;BME280;6847;48.830;9.116;2023-02-16T09:28:57;98986.13;;;27.43;36.19
13553;BME280;6847;48.830;9.116;2023-02-16T09:31:27;98989.97;;;27.70;36.03
13553;BME280;6847;48.830;9.116;2023-02-16T09:33:57;98973.41;;;27.77;36.06
13553;BME280;6847;48.830;9.116;2023-02-16T09:36:25;98987.16;;;28.24;35.78
13553;BME280;6847;48.830;9.116;2023-02-16T09:38:53;98982.16;;;28.33;35.10
13553;BME280;6847;48.830;9.116;2023-02-16T09:41:27;98985.03;;;28.60;35.18
13553;BME280;6847;48.830;9.116;2023-02-16T09:44:00;98977.25;;;28.69;35.16
13553;BME280;6847;48.830;9.116;2023-02-16T09:46:29;98972.34;;;28.40;35.04
13553;BME280;6847;48.830;9.116;2023-02-16T09:49:02;98974.03;;;28.25;35.19
13553;BME280;6847;48.830;9.116;2023-02-16T09:51:33;98980.09;;;28.30;35.17
13553;BME280;6847;48.830;9.116;2023-02-16T09:54:12;98979.06;;;28.39;34.56
13553;BME280;6847;48.830;9.116;2023-02-16T09:56:44;98979.00;;;28.16;34.92
13553;BME280;6847;48.830;9.116;2023-02-16T09:59:23;98980.72;;;28.20;34.69
13553;BME280;6847;48.830;9.116;2023-02-16T10:01:55;98978.56;;;28.33;34.54
13553;BME280;6847;48.830;9.116;2023-02-16T10:04:31;98973.31;;;28.51;34.38
13553;BME280;6847;48.830;9.116;2023-02-16T10:07:11;98968.34;;;28.41;34.13
13553;BME280;6847;48.830;9.116;2023-02-16T10:09:41;98972.50;;;28.50;33.77
13553;BME280;6847;48.830;9.116;2023-02-16T10:12:13;98976.75;;;28.63;33.67
13553;BME280;6847;48.830;9.116;2023-02-16T10:14:49;98948.38;;;28.58;33.60
13553;BME280;6847;48.830;9.116;2023-02-16T10:17:22;98984.47;;;28.51;33.44
13553;BME280;6847;48.830;9.116;2023-02-16T10:19:54;98979.09;;;28.19;33.65
13553;BME280;6847;48.830;9.116;2023-02-16T10:22:27;98961.19;;;28.01;33.53
13553;BME280;6847;48.830;9.116;2023-02-16T10:24:59;98975.50;;;27.99;33.51
13553;BME280;6847;48.830;9.116;2023-02-16T10:27:31;98966.03;;;27.85;33.22
13553;BME280;6847;48.830;9.116;2023-02-16T10:30:11;98922.13;;;27.24;33.60
13553;BME280;6847;48.830;9.116;2023-02-16T10:32:42;98967.25;;;27.52;33.05
13553;BME280;6847;48.830;9.116;2023-02-16T10:35:22;98965.22;;;26.99;33.55
13553;BME280;6847;48.830;9.116;2023-02-16T10:37:58;98970.66;;;27.26;33.23
13553;BME280;6847;48.830;9.116;2023-02-16T10:40:33;98928.44;;;27.21;32.49
13553;BME280;6847;48.830;9.116;2023-02-16T10:43:10;98954.81;;;26.96;33.09
13553;BME280;6847;48.830;9.116;2023-02-16T10:45:43;98957.13;;;26.94;32.98
13553;BME280;6847;48.830;9.116;2023-02-16T10:48:12;98957.41;;;27.20;32.42
13553;BME280;6847;48.830;9.116;2023-02-16T10:50:42;98957.47;;;27.23;32.16
13553;BME280;6847;48.830;9.116;2023-02-16T10:53:15;98965.34;;;27.37;32.41
13553;BME280;6847;48.830;9.116;2023-02-16T10:55:45;98956.28;;;27.40;31.98
13553;BME280;6847;48.830;9.116;2023-02-16T10:58:18;98967.25;;;27.52;31.68
13553;BME280;6847;48.830;9.116;2023-02-16T11:00:51;98768.78;;;26.52;31.45
13553;BME280;6847;48.830;9.116;2023-02-16T11:03:23;98955.91;;;27.96;31.05
13553;BME280;6847;48.830;9.116;2023-02-16T11:05:51;98900.41;;;27.65;31.18
13553;BME280;6847;48.830;9.116;2023-02-16T11:08:18;98949.03;;;28.09;30.99
13553;BME280;6847;48.830;9.116;2023-02-16T11:10:52;98943.25;;;28.18;30.90
13553;BME280;6847;48.830;9.116;2023-02-16T11:13:28;98948.72;;;28.14;30.81
13553;BME280;6847;48.830;9.116;2023-02-16T11:16:02;98951.06;;;27.74;31.09
13553;BME280;6847;48.830;9.116;2023-02-16T11:18:34;98939.16;;;27.38;31.55
13553;BME280;6847;48.830;9.116;2023-02-16T11:21:05;98939.03;;;27.50;31.53
13553;BME280;6847;48.830;9.116;2023-02-16T11:23:33;98926.97;;;27.62;31.52
13553;BME280;6847;48.830;9.116;2023-02-16T11:26:03;98932.72;;;27.53;31.54
13553;BME280;6847;48.830;9.116;2023-02-16T11:28:35;98936.81;;;27.40;31.37
13553;BME280;6847;48.830;9.116;2023-02-16T11:31:15;98928.44;;;27.21;31.33
13553;BME280;6847;48.830;9.116;2023-02-16T11:33:54;98924.47;;;27.22;31.25
13553;BME280;6847;48.830;9.116;2023-02-16T11:36:33;98927.69;;;27.24;31.10
13553;BME280;6847;48.830;9.116;2023-02-16T11:39:06;98925.50;;;27.33;30.92
13553;BME280;6847;48.830;9.116;2023-02-16T11:41:42;98925.88;;;27.32;30.75
13553;BME280;6847;48.830;9.116;2023-02-16T11:44:23;98908.00;;;27.33;30.95
13553;BME280;6847;48.830;9.116;2023-02-16T11:46:53;98870.41;;;27.19;30.71
13553;BME280;6847;48.830;9.116;2023-02-16T11:49:29;98918.00;;;27.53;30.62
13553;BME280;6847;48.830;9.116;2023-02-16T11:51:57;98906.94;;;27.37;30.79
13553;BME280;6847;48.830;9.116;2023-02-16T11:54:28;98910.28;;;27.27;30.63
13553;BME280;6847;48.830;9.116;2023-02-16T11:57:02;98870.47;;;27.23;30.52
13553;BME280;6847;48.830;9.116;2023-02-16T11:59:34;98901.41;;;27.56;30.54
13553;BME280;6847;48.830;9.116;2023-02-16T12:02:16;98894.91;;;27.33;30.60
13553;BME280;6847;48.830;9.116;2023-02-16T12:04:56;98867.25;;;26.70;30.66
13553;BME280;6847;48.830;9.116;2023-02-16T12:07:33;98880.75;;;26.56;30.67
13553;BME280;6847;48.830;9.116;2023-02-16T12:10:06;98893.50;;;26.57;31.10
13553;BME280;6847;48.830;9.116;2023-02-16T12:12:41;98885.44;;;26.52;30.63
13553;BME280;6847;48.830;9.116;2023-02-16T12:15:16;98869.03;;;26.47;30.46
13553;BME280;6847;48.830;9.116;2023-02-16T12:17:59;98844.19;;;26.54;30.33
13553;BME280;6847;48.830;9.116;2023-02-16T12:20:40;98874.03;;;26.88;30.13
13553;BME280;6847;48.830;9.116;2023-02-16T12:23:20;98807.19;;;26.66;30.17
13553;BME280;6847;48.830;9.116;2023-02-16T12:25:56;98810.88;;;26.54;30.03
13553;BME280;6847;48.830;9.116;2023-02-16T12:28:35;98829.06;;;26.36;30.22
13553;BME280;6847;48.830;9.116;2023-02-16T12:31:12;98857.84;;;26.28;30.91
13553;BME280;6847;48.830;9.116;2023-02-16T12:34:00;98850.06;;;26.05;31.08
13553;BME280;6847;48.830;9.116;2023-02-16T12:36:52;98848.59;;;25.80;31.18
13553;BME280;6847;48.830;9.116;2023-02-16T12:39:25;98851.50;;;25.43;31.41
13553;BME280;6847;48.830;9.116;2023-02-16T12:42:07;98839.09;;;25.25;31.53
13553;BME280;6847;48.830;9.116;2023-02-16T12:44:41;98837.16;;;25.14;31.25
13553;BME280;6847;48.830;9.116;2023-02-16T12:47:13;98826.44;;;25.00;31.42
13553;BME280;6847;48.830;9.116;2023-02-16T12:49:51;98828.50;;;24.91;31.24
13553;BME280;6847;48.830;9.116;2023-02-16T12:52:29;98811.00;;;24.50;31.49
13553;BME280;6847;48.830;9.116;2023-02-16T12:55:06;98778.44;;;23.98;31.59
13553;BME280;6847;48.830;9.116;2023-02-16T12:57:39;98815.81;;;24.17;31.45
13553;BME280;6847;48.830;9.116;2023-02-16T13:00:15;98813.66;;;24.34;31.14
13553;BME280;6847;48.830;9.116;2023-02-16T13:02:49;98811.81;;;24.75;30.77
13553;BME280;6847;48.830;9.116;2023-02-16T13:05:21;98745.88;;;24.81;30.56
13553;BME280;6847;48.830;9.116;2023-02-16T13:07:53;98815.41;;;25.56;30.01
13553;BME280;6847;48.830;9.116;2023-02-16T13:10:23;98804.78;;;26.01;29.62
13553;BME280;6847;48.830;9.116;2023-02-16T13:12:54;98806.34;;;26.30;29.53
13553;BME280;6847;48.830;9.116;2023-02-16T13:15:29;98804.44;;;26.50;29.46
13553;BME280;6847;48.830;9.116;2023-02-16T13:18:02;98798.50;;;26.67;29.55
13553;BME280;6847;48.830;9.116;2023-02-16T13:20:37;98805.09;;;26.78;29.82
13553;BME280;6847;48.830;9.116;2023-02-16T13:23:27;98812.41;;;26.51;29.69
13553;BME280;6847;48.830;9.116;2023-02-16T13:26:13;98795.47;;;26.09;30.07
13553;BME280;6847;48.830;9.116;2023-02-16T13:29:00;98793.63;;;25.70;30.61
13553;BME280;6847;48.830;9.116;2023-02-16T13:31:39;98754.63;;;25.35;30.41
13553;BME280;6847;48.830;9.116;2023-02-16T13:34:24;98789.53;;;25.64;30.75
13553;BME280;6847;48.830;9.116;2023-02-16T13:37:00;98791.84;;;25.62;30.13
13553;BME280;6847;48.830;9.116;2023-02-16T13:39:47;98696.50;;;24.83;30.45
13553;BME280;6847;48.830;9.116;2023-02-16T13:42:44;98789.47;;;25.08;30.61
13553;BME280;6847;48.830;9.116;2023-02-16T13:45:20;98768.31;;;24.63;30.69
13553;BME280;6847;48.830;9.116;2023-02-16T13:47:51;98656.72;;;23.62;30.87